Terminal Aerodrome Forecast
Issued by NWS

Home | Current Version | Previous Version | Text Only | Print | Product List | Glossary On
Versions: 1 2 3 4 5 6 7 8 9 10 11 12 13 14 15 16 17
263
FTUS43 KAPX 261120
TAFTVC
TAF
KTVC 261120Z 2612/2712 12008KT P6SM -SHRA OVC012
     FM270200 00000KT 1 1/2SM -SHRA BR OVC008
     FM270600 VRB03KT 1/2SM FG OVC008
     FM271000 31004KT 3SM BR OVC008=

USA.gov is the U.S. government's official web portal to all federal, state and local government web resources and services.